sensor_id;sensor_type;location;lat;lon;timestamp;pressure;altitude;pressure_sealevel;temperature;humidity
15694;BME280;7947;48.834;9.132;2023-02-26T00:01:50;97720.94;;;3.05;65.28
15694;BME280;7947;48.834;9.132;2023-02-26T00:04:54;97714.69;;;3.11;63.94
15694;BME280;7947;48.834;9.132;2023-02-26T00:07:57;97720.50;;;2.96;64.90
15694;BME280;7947;48.834;9.132;2023-02-26T00:11:00;97719.00;;;3.00;64.88
15694;BME280;7947;48.834;9.132;2023-02-26T00:14:03;97723.13;;;3.08;65.84
15694;BME280;7947;48.834;9.132;2023-02-26T00:17:31;97720.50;;;2.96;63.62
15694;BME280;7947;48.834;9.132;2023-02-26T00:20:37;97717.19;;;2.89;64.14
15694;BME280;7947;48.834;9.132;2023-02-26T00:23:40;97724.13;;;2.90;63.62
15694;BME280;7947;48.834;9.132;2023-02-26T00:26:43;97730.03;;;2.81;64.61
15694;BME280;7947;48.834;9.132;2023-02-26T00:29:46;97730.38;;;2.72;67.10
15694;BME280;7947;48.834;9.132;2023-02-26T00:32:49;97728.88;;;2.77;66.14
15694;BME280;7947;48.834;9.132;2023-02-26T00:35:57;97730.03;;;2.81;65.40
15694;BME280;7947;48.834;9.132;2023-02-26T00:39:12;97731.63;;;2.82;64.76
15694;BME280;7947;48.834;9.132;2023-02-26T00:42:16;97735.06;;;2.82;65.08
15694;BME280;7947;48.834;9.132;2023-02-26T00:45:20;97733.03;;;2.72;66.57
15694;BME280;7947;48.834;9.132;2023-02-26T00:48:39;97738.00;;;2.69;66.35
15694;BME280;7947;48.834;9.132;2023-02-26T00:51:50;97738.13;;;2.62;66.34
15694;BME280;7947;48.834;9.132;2023-02-26T00:54:53;97744.34;;;2.56;66.35
15694;BME280;7947;48.834;9.132;2023-02-26T00:57:56;97739.41;;;2.48;66.30
15694;BME280;7947;48.834;9.132;2023-02-26T01:00:59;97744.59;;;2.43;66.59
15694;BME280;7947;48.834;9.132;2023-02-26T01:04:02;97737.69;;;2.42;67.37
15694;BME280;7947;48.834;9.132;2023-02-26T01:07:08;97739.53;;;2.42;66.95
15694;BME280;7947;48.834;9.132;2023-02-26T01:10:12;97737.69;;;2.31;67.66
15694;BME280;7947;48.834;9.132;2023-02-26T01:13:15;97738.28;;;2.21;68.71
15694;BME280;7947;48.834;9.132;2023-02-26T01:16:21;97740.09;;;2.21;69.24
15694;BME280;7947;48.834;9.132;2023-02-26T01:19:30;97738.75;;;2.18;69.42
15694;BME280;7947;48.834;9.132;2023-02-26T01:22:40;97737.94;;;2.18;68.76
15694;BME280;7947;48.834;9.132;2023-02-26T01:25:48;97738.84;;;2.12;69.43
15694;BME280;7947;48.834;9.132;2023-02-26T01:28:52;97738.63;;;2.02;69.08
15694;BME280;7947;48.834;9.132;2023-02-26T01:31:59;97730.34;;;1.98;69.47
15694;BME280;7947;48.834;9.132;2023-02-26T01:35:10;97732.97;;;1.87;69.60
15694;BME280;7947;48.834;9.132;2023-02-26T01:38:21;97738.03;;;1.76;69.36
15694;BME280;7947;48.834;9.132;2023-02-26T01:41:30;97732.75;;;1.76;69.16
15694;BME280;7947;48.834;9.132;2023-02-26T01:44:39;97737.56;;;1.56;69.53
15694;BME280;7947;48.834;9.132;2023-02-26T01:47:48;97742.50;;;1.53;69.22
15694;BME280;7947;48.834;9.132;2023-02-26T01:50:53;97747.06;;;1.46;68.85
15694;BME280;7947;48.834;9.132;2023-02-26T01:53:56;97743.81;;;1.44;68.95
15694;BME280;7947;48.834;9.132;2023-02-26T01:57:01;97736.69;;;1.33;68.54
15694;BME280;7947;48.834;9.132;2023-02-26T02:00:08;97747.34;;;1.26;69.85
15694;BME280;7947;48.834;9.132;2023-02-26T02:03:11;97742.06;;;1.26;69.02
15694;BME280;7947;48.834;9.132;2023-02-26T02:06:17;97738.94;;;1.18;69.36
15694;BME280;7947;48.834;9.132;2023-02-26T02:09:22;97740.50;;;1.07;69.52
15694;BME280;7947;48.834;9.132;2023-02-26T02:12:31;97740.50;;;1.07;68.87
15694;BME280;7947;48.834;9.132;2023-02-26T02:15:39;97749.19;;;0.96;69.05
15694;BME280;7947;48.834;9.132;2023-02-26T02:18:51;97753.75;;;0.89;68.29
15694;BME280;7947;48.834;9.132;2023-02-26T02:22:07;97751.84;;;0.78;68.54
15694;BME280;7947;48.834;9.132;2023-02-26T02:25:34;97757.41;;;0.70;68.57
15694;BME280;7947;48.834;9.132;2023-02-26T02:28:57;97759.19;;;0.58;69.51
15694;BME280;7947;48.834;9.132;2023-02-26T02:32:07;97765.34;;;0.52;69.25
15694;BME280;7947;48.834;9.132;2023-02-26T02:35:16;97759.63;;;0.37;69.45
15694;BME280;7947;48.834;9.132;2023-02-26T02:38:22;97766.38;;;0.33;68.99
15694;BME280;7947;48.834;9.132;2023-02-26T02:41:29;97765.84;;;0.42;69.07
15694;BME280;7947;48.834;9.132;2023-02-26T02:44:38;97777.69;;;0.33;69.67
15694;BME280;7947;48.834;9.132;2023-02-26T02:47:47;97778.16;;;0.30;69.15
15694;BME280;7947;48.834;9.132;2023-02-26T02:50:54;97784.06;;;0.26;69.26
15694;BME280;7947;48.834;9.132;2023-02-26T02:54:00;97776.97;;;0.26;69.39
15694;BME280;7947;48.834;9.132;2023-02-26T02:57:08;97776.59;;;0.23;68.98
15694;BME280;7947;48.834;9.132;2023-02-26T03:00:15;97769.28;;;0.25;69.21
15694;BME280;7947;48.834;9.132;2023-02-26T03:03:27;97784.63;;;0.10;69.84
15694;BME280;7947;48.834;9.132;2023-02-26T03:06:33;97788.06;;;0.10;69.10
15694;BME280;7947;48.834;9.132;2023-02-26T03:09:36;97792.97;;;0.07;68.83
15694;BME280;7947;48.834;9.132;2023-02-26T03:12:39;97794.63;;;0.01;68.96
15694;BME280;7947;48.834;9.132;2023-02-26T03:15:46;97791.63;;;-0.03;70.15
15694;BME280;7947;48.834;9.132;2023-02-26T03:19:00;97797.13;;;-0.04;70.86
15694;BME280;7947;48.834;9.132;2023-02-26T03:22:10;97802.88;;;-0.14;72.26
15694;BME280;7947;48.834;9.132;2023-02-26T03:25:17;97804.94;;;-0.16;73.10
15694;BME280;7947;48.834;9.132;2023-02-26T03:28:26;97794.38;;;-0.16;73.76
15694;BME280;7947;48.834;9.132;2023-02-26T03:31:34;97799.94;;;-0.06;73.99
15694;BME280;7947;48.834;9.132;2023-02-26T03:34:45;97803.69;;;0.12;73.10
15694;BME280;7947;48.834;9.132;2023-02-26T03:37:51;97805.44;;;0.18;72.56
15694;BME280;7947;48.834;9.132;2023-02-26T03:41:00;97810.09;;;0.16;72.12
15694;BME280;7947;48.834;9.132;2023-02-26T03:44:07;97806.72;;;0.09;72.44
15694;BME280;7947;48.834;9.132;2023-02-26T03:47:12;97804.53;;;0.06;71.98
15694;BME280;7947;48.834;9.132;2023-02-26T03:50:20;97814.91;;;0.00;72.45
15694;BME280;7947;48.834;9.132;2023-02-26T03:53:29;97818.41;;;-0.06;71.26
15694;BME280;7947;48.834;9.132;2023-02-26T03:56:36;97817.28;;;-0.16;71.37
15694;BME280;7947;48.834;9.132;2023-02-26T03:59:41;97817.66;;;-0.13;71.00
15694;BME280;7947;48.834;9.132;2023-02-26T04:02:47;97816.44;;;-0.10;70.61
15694;BME280;7947;48.834;9.132;2023-02-26T04:05:54;97823.31;;;-0.09;70.75
15694;BME280;7947;48.834;9.132;2023-02-26T04:08:59;97826.13;;;-0.04;71.43
15694;BME280;7947;48.834;9.132;2023-02-26T04:12:02;97826.16;;;-0.11;70.84
15694;BME280;7947;48.834;9.132;2023-02-26T04:15:06;97831.44;;;-0.11;71.59
15694;BME280;7947;48.834;9.132;2023-02-26T04:18:09;97826.75;;;-0.09;71.02
15694;BME280;7947;48.834;9.132;2023-02-26T04:21:15;97827.97;;;-0.11;70.22
15694;BME280;7947;48.834;9.132;2023-02-26T04:24:18;97832.28;;;-0.17;68.95
15694;BME280;7947;48.834;9.132;2023-02-26T04:27:21;97832.53;;;-0.25;69.11
15694;BME280;7947;48.834;9.132;2023-02-26T04:30:23;97830.72;;;-0.24;68.39
15694;BME280;7947;48.834;9.132;2023-02-26T04:33:26;97838.25;;;-0.28;68.64
15694;BME280;7947;48.834;9.132;2023-02-26T04:36:30;97845.53;;;-0.30;70.21
15694;BME280;7947;48.834;9.132;2023-02-26T04:39:33;97844.19;;;-0.39;70.48
15694;BME280;7947;48.834;9.132;2023-02-26T04:42:35;97850.94;;;-0.49;71.07
15694;BME280;7947;48.834;9.132;2023-02-26T04:45:38;97855.75;;;-0.46;71.70
15694;BME280;7947;48.834;9.132;2023-02-26T04:48:41;97857.19;;;-0.50;70.67
15694;BME280;7947;48.834;9.132;2023-02-26T04:51:45;97868.75;;;-0.45;71.94
15694;BME280;7947;48.834;9.132;2023-02-26T04:54:48;97861.22;;;-0.41;70.72
15694;BME280;7947;48.834;9.132;2023-02-26T04:57:50;97863.78;;;-0.28;72.52
15694;BME280;7947;48.834;9.132;2023-02-26T05:00:53;97870.97;;;-0.17;72.34
15694;BME280;7947;48.834;9.132;2023-02-26T05:03:56;97865.25;;;-0.08;71.56
15694;BME280;7947;48.834;9.132;2023-02-26T05:07:00;97866.06;;;-0.07;71.23
15694;BME280;7947;48.834;9.132;2023-02-26T05:10:03;97867.28;;;-0.10;71.51
15694;BME280;7947;48.834;9.132;2023-02-26T05:13:06;97863.63;;;-0.09;71.50
15694;BME280;7947;48.834;9.132;2023-02-26T05:16:08;97875.97;;;-0.03;71.06
15694;BME280;7947;48.834;9.132;2023-02-26T05:19:11;97871.94;;;-0.12;71.62
15694;BME280;7947;48.834;9.132;2023-02-26T05:22:15;97868.06;;;-0.03;71.41
15694;BME280;7947;48.834;9.132;2023-02-26T05:25:19;97876.94;;;0.03;72.00
15694;BME280;7947;48.834;9.132;2023-02-26T05:28:22;97873.66;;;0.08;71.39
15694;BME280;7947;48.834;9.132;2023-02-26T05:31:25;97879.44;;;0.23;71.26
15694;BME280;7947;48.834;9.132;2023-02-26T05:34:28;97883.13;;;0.15;70.86
15694;BME280;7947;48.834;9.132;2023-02-26T05:37:32;97884.91;;;0.21;71.60
15694;BME280;7947;48.834;9.132;2023-02-26T05:40:34;97892.00;;;0.21;70.00
15694;BME280;7947;48.834;9.132;2023-02-26T05:43:37;97889.00;;;0.17;69.98
15694;BME280;7947;48.834;9.132;2023-02-26T05:46:40;97909.88;;;0.19;70.51
15694;BME280;7947;48.834;9.132;2023-02-26T05:49:42;97909.97;;;0.06;69.41
15694;BME280;7947;48.834;9.132;2023-02-26T05:52:46;97914.38;;;-0.20;69.68
15694;BME280;7947;48.834;9.132;2023-02-26T05:55:49;97918.63;;;-0.19;70.14
15694;BME280;7947;48.834;9.132;2023-02-26T05:58:52;97914.78;;;-0.16;69.90
15694;BME280;7947;48.834;9.132;2023-02-26T06:01:54;97911.94;;;-0.21;68.95
15694;BME280;7947;48.834;9.132;2023-02-26T06:04:57;97916.47;;;-0.28;69.36
15694;BME280;7947;48.834;9.132;2023-02-26T06:08:01;97918.94;;;-0.33;70.49
15694;BME280;7947;48.834;9.132;2023-02-26T06:11:04;97930.84;;;-0.31;70.58
15694;BME280;7947;48.834;9.132;2023-02-26T06:14:07;97938.97;;;-0.32;70.26
15694;BME280;7947;48.834;9.132;2023-02-26T06:17:09;97945.81;;;-0.25;70.41
15694;BME280;7947;48.834;9.132;2023-02-26T06:20:12;97946.25;;;-0.28;70.92
15694;BME280;7947;48.834;9.132;2023-02-26T06:23:16;97955.38;;;-0.30;70.98
15694;BME280;7947;48.834;9.132;2023-02-26T06:26:19;97954.56;;;-0.31;71.14
15694;BME280;7947;48.834;9.132;2023-02-26T06:29:24;97957.84;;;-0.35;71.38
15694;BME280;7947;48.834;9.132;2023-02-26T06:32:27;97972.06;;;-0.43;70.07
15694;BME280;7947;48.834;9.132;2023-02-26T06:35:31;97975.81;;;-0.26;70.85
15694;BME280;7947;48.834;9.132;2023-02-26T06:38:35;97980.06;;;-0.25;70.95
15694;BME280;7947;48.834;9.132;2023-02-26T06:41:37;97987.72;;;-0.17;71.22
15694;BME280;7947;48.834;9.132;2023-02-26T06:44:40;97988.94;;;-0.13;71.29
15694;BME280;7947;48.834;9.132;2023-02-26T06:47:43;97988.47;;;-0.03;71.49
15694;BME280;7947;48.834;9.132;2023-02-26T06:50:45;98004.66;;;0.07;72.19
15694;BME280;7947;48.834;9.132;2023-02-26T06:53:50;98007.19;;;0.20;71.64
15694;BME280;7947;48.834;9.132;2023-02-26T06:56:52;98013.16;;;0.40;71.87
15694;BME280;7947;48.834;9.132;2023-02-26T06:59:58;98021.63;;;0.49;71.22
15694;BME280;7947;48.834;9.132;2023-02-26T07:03:01;98021.69;;;0.67;70.93
15694;BME280;7947;48.834;9.132;2023-02-26T07:06:05;98024.81;;;0.82;70.17
15694;BME280;7947;48.834;9.132;2023-02-26T07:09:28;98025.38;;;0.90;70.89
15694;BME280;7947;48.834;9.132;2023-02-26T07:12:31;98014.09;;;1.02;69.95
15694;BME280;7947;48.834;9.132;2023-02-26T07:15:34;98019.34;;;1.08;70.07
15694;BME280;7947;48.834;9.132;2023-02-26T07:18:37;98020.66;;;1.17;70.51
15694;BME280;7947;48.834;9.132;2023-02-26T07:21:39;98029.22;;;1.13;70.21
15694;BME280;7947;48.834;9.132;2023-02-26T07:24:43;98027.19;;;1.15;70.48
15694;BME280;7947;48.834;9.132;2023-02-26T07:27:46;98033.88;;;1.17;69.34
15694;BME280;7947;48.834;9.132;2023-02-26T07:30:49;98035.19;;;1.26;69.81
15694;BME280;7947;48.834;9.132;2023-02-26T07:33:52;98031.31;;;1.29;69.70
15694;BME280;7947;48.834;9.132;2023-02-26T07:36:55;98040.75;;;1.43;69.28
15694;BME280;7947;48.834;9.132;2023-02-26T07:40:00;98050.44;;;1.49;68.93
15694;BME280;7947;48.834;9.132;2023-02-26T07:43:04;98044.63;;;1.58;68.76
15694;BME280;7947;48.834;9.132;2023-02-26T07:46:07;98054.25;;;1.71;67.99
15694;BME280;7947;48.834;9.132;2023-02-26T07:49:10;98055.59;;;1.80;67.25
15694;BME280;7947;48.834;9.132;2023-02-26T07:52:12;98053.50;;;1.82;67.73
15694;BME280;7947;48.834;9.132;2023-02-26T07:55:16;98058.38;;;1.85;67.66
15694;BME280;7947;48.834;9.132;2023-02-26T07:58:19;98063.78;;;1.90;67.68
15694;BME280;7947;48.834;9.132;2023-02-26T08:01:22;98058.44;;;1.78;67.78
15694;BME280;7947;48.834;9.132;2023-02-26T08:04:25;98055.38;;;1.81;68.33
15694;BME280;7947;48.834;9.132;2023-02-26T08:07:28;98055.56;;;1.98;68.61
15694;BME280;7947;48.834;9.132;2023-02-26T08:10:32;98060.91;;;2.10;68.10
15694;BME280;7947;48.834;9.132;2023-02-26T08:13:35;98060.44;;;2.31;67.63
15694;BME280;7947;48.834;9.132;2023-02-26T08:16:37;98062.13;;;2.43;66.71
15694;BME280;7947;48.834;9.132;2023-02-26T08:19:40;98068.94;;;2.51;66.05
15694;BME280;7947;48.834;9.132;2023-02-26T08:22:42;98068.94;;;2.51;65.48
15694;BME280;7947;48.834;9.132;2023-02-26T08:25:46;98066.28;;;2.51;66.09
15694;BME280;7947;48.834;9.132;2023-02-26T08:28:50;98073.75;;;2.54;65.86
15694;BME280;7947;48.834;9.132;2023-02-26T08:31:53;98067.22;;;2.56;66.03
15694;BME280;7947;48.834;9.132;2023-02-26T08:34:56;98072.97;;;2.53;63.75
15694;BME280;7947;48.834;9.132;2023-02-26T08:37:58;98076.50;;;2.47;65.39
15694;BME280;7947;48.834;9.132;2023-02-26T08:41:02;98080.22;;;2.58;66.23
15694;BME280;7947;48.834;9.132;2023-02-26T08:44:05;98078.88;;;2.67;65.35
15694;BME280;7947;48.834;9.132;2023-02-26T08:47:08;98075.56;;;2.83;64.85
15694;BME280;7947;48.834;9.132;2023-02-26T08:50:12;98080.28;;;2.81;65.70
15694;BME280;7947;48.834;9.132;2023-02-26T08:53:15;98073.41;;;2.80;65.12
15694;BME280;7947;48.834;9.132;2023-02-26T08:56:19;98076.47;;;2.77;65.39
15694;BME280;7947;48.834;9.132;2023-02-26T08:59:22;98086.94;;;2.72;65.58
15694;BME280;7947;48.834;9.132;2023-02-26T09:02:25;98083.38;;;2.66;66.06
15694;BME280;7947;48.834;9.132;2023-02-26T09:05:28;98096.03;;;2.64;64.48
15694;BME280;7947;48.834;9.132;2023-02-26T09:08:31;98098.63;;;2.53;64.73
15694;BME280;7947;48.834;9.132;2023-02-26T09:11:36;98104.69;;;2.42;66.46
15694;BME280;7947;48.834;9.132;2023-02-26T09:14:39;98106.16;;;2.38;66.98
15694;BME280;7947;48.834;9.132;2023-02-26T09:17:42;98108.47;;;2.46;67.28
15694;BME280;7947;48.834;9.132;2023-02-26T09:20:45;98114.50;;;2.53;67.63
15694;BME280;7947;48.834;9.132;2023-02-26T09:23:47;98110.16;;;2.58;67.02
15694;BME280;7947;48.834;9.132;2023-02-26T09:26:52;98121.56;;;2.59;67.65
15694;BME280;7947;48.834;9.132;2023-02-26T09:29:54;98121.63;;;2.52;67.59
15694;BME280;7947;48.834;9.132;2023-02-26T09:32:57;98126.25;;;2.57;68.61
15694;BME280;7947;48.834;9.132;2023-02-26T09:36:01;98125.66;;;2.55;68.72
15694;BME280;7947;48.834;9.132;2023-02-26T09:39:04;98130.59;;;2.51;69.34
15694;BME280;7947;48.834;9.132;2023-02-26T09:42:21;98135.31;;;2.49;68.91
15694;BME280;7947;48.834;9.132;2023-02-26T09:45:30;98137.28;;;2.54;68.38
15694;BME280;7947;48.834;9.132;2023-02-26T09:48:35;98139.44;;;2.45;69.36
15694;BME280;7947;48.834;9.132;2023-02-26T09:51:41;98149.06;;;2.40;69.07
15694;BME280;7947;48.834;9.132;2023-02-26T09:54:46;98146.50;;;2.33;70.21
15694;BME280;7947;48.834;9.132;2023-02-26T09:57:54;98153.38;;;2.34;70.54
15694;BME280;7947;48.834;9.132;2023-02-26T10:01:05;98149.59;;;2.30;70.79
15694;BME280;7947;48.834;9.132;2023-02-26T10:04:20;98156.34;;;2.26;71.16
15694;BME280;7947;48.834;9.132;2023-02-26T10:07:31;98149.16;;;2.33;71.04
15694;BME280;7947;48.834;9.132;2023-02-26T10:10:48;98155.75;;;2.42;70.89
15694;BME280;7947;48.834;9.132;2023-02-26T10:13:57;98150.03;;;2.45;70.67
15694;BME280;7947;48.834;9.132;2023-02-26T10:17:07;98165.84;;;2.34;71.79
15694;BME280;7947;48.834;9.132;2023-02-26T10:20:18;98171.31;;;2.32;72.56
15694;BME280;7947;48.834;9.132;2023-02-26T10:23:25;98167.66;;;2.33;71.98
15694;BME280;7947;48.834;9.132;2023-02-26T10:26:33;98168.03;;;2.37;71.37
15694;BME280;7947;48.834;9.132;2023-02-26T10:29:45;98168.38;;;2.40;71.28
15694;BME280;7947;48.834;9.132;2023-02-26T10:32:58;98165.53;;;2.42;70.04
15694;BME280;7947;48.834;9.132;2023-02-26T10:36:13;98173.16;;;2.50;70.83
15694;BME280;7947;48.834;9.132;2023-02-26T10:39:27;98174.31;;;2.54;70.94
15694;BME280;7947;48.834;9.132;2023-02-26T10:42:40;98171.53;;;2.67;70.12
15694;BME280;7947;48.834;9.132;2023-02-26T10:45:56;98177.66;;;2.79;68.89
15694;BME280;7947;48.834;9.132;2023-02-26T10:49:18;98176.13;;;2.90;69.11
15694;BME280;7947;48.834;9.132;2023-02-26T10:52:26;98172.53;;;2.84;67.12
15694;BME280;7947;48.834;9.132;2023-02-26T10:55:34;98174.81;;;2.81;69.12
15694;BME280;7947;48.834;9.132;2023-02-26T10:58:40;98179.00;;;2.88;67.68
15694;BME280;7947;48.834;9.132;2023-02-26T11:01:44;98184.41;;;2.93;67.19
15694;BME280;7947;48.834;9.132;2023-02-26T11:04:48;98182.22;;;2.90;65.68
15694;BME280;7947;48.834;9.132;2023-02-26T11:08:12;98184.38;;;2.82;65.20
15694;BME280;7947;48.834;9.132;2023-02-26T11:11:35;98188.84;;;2.81;65.12
15694;BME280;7947;48.834;9.132;2023-02-26T11:14:38;98191.22;;;2.71;66.04
15694;BME280;7947;48.834;9.132;2023-02-26T11:17:44;98186.84;;;2.65;66.77
15694;BME280;7947;48.834;9.132;2023-02-26T11:20:47;98190.78;;;2.74;67.13
15694;BME280;7947;48.834;9.132;2023-02-26T11:23:53;98172.88;;;2.88;65.73
15694;BME280;7947;48.834;9.132;2023-02-26T11:26:59;98179.66;;;3.13;65.01
15694;BME280;7947;48.834;9.132;2023-02-26T11:30:09;98176.03;;;3.49;66.63
15694;BME280;7947;48.834;9.132;2023-02-26T11:33:18;98173.06;;;3.92;63.34
15694;BME280;7947;48.834;9.132;2023-02-26T11:36:25;98168.09;;;4.07;61.99
15694;BME280;7947;48.834;9.132;2023-02-26T11:39:33;98169.72;;;4.08;59.27
15694;BME280;7947;48.834;9.132;2023-02-26T11:42:42;98167.53;;;4.05;61.39
15694;BME280;7947;48.834;9.132;2023-02-26T11:45:48;98177.22;;;3.88;59.96
15694;BME280;7947;48.834;9.132;2023-02-26T11:48:57;98178.38;;;3.92;58.30
15694;BME280;7947;48.834;9.132;2023-02-26T11:52:16;98181.94;;;3.97;59.63
15694;BME280;7947;48.834;9.132;2023-02-26T11:55:25;98178.28;;;3.87;59.82
15694;BME280;7947;48.834;9.132;2023-02-26T11:58:33;98177.56;;;3.91;61.67
15694;BME280;7947;48.834;9.132;2023-02-26T12:01:36;98182.19;;;3.84;61.45
15694;BME280;7947;48.834;9.132;2023-02-26T12:04:44;98197.94;;;3.44;62.38
15694;BME280;7947;48.834;9.132;2023-02-26T12:07:48;98194.34;;;3.39;62.70
15694;BME280;7947;48.834;9.132;2023-02-26T12:11:03;98183.44;;;3.06;63.72
15694;BME280;7947;48.834;9.132;2023-02-26T12:14:17;98186.16;;;2.99;65.30
15694;BME280;7947;48.834;9.132;2023-02-26T12:17:32;98195.38;;;2.97;65.67
15694;BME280;7947;48.834;9.132;2023-02-26T12:20:43;98196.53;;;3.01;65.59
15694;BME280;7947;48.834;9.132;2023-02-26T12:24:13;98196.31;;;3.02;65.73
15694;BME280;7947;48.834;9.132;2023-02-26T12:27:28;98184.22;;;3.06;66.63
15694;BME280;7947;48.834;9.132;2023-02-26T12:30:53;98188.31;;;3.20;64.39
15694;BME280;7947;48.834;9.132;2023-02-26T12:34:14;98186.69;;;3.08;63.23
15694;BME280;7947;48.834;9.132;2023-02-26T12:37:32;98187.06;;;2.93;63.96
15694;BME280;7947;48.834;9.132;2023-02-26T12:40:49;98188.84;;;2.81;64.44
15694;BME280;7947;48.834;9.132;2023-02-26T12:43:59;98184.28;;;2.88;64.50
15694;BME280;7947;48.834;9.132;2023-02-26T12:47:24;98186.31;;;2.74;63.90
15694;BME280;7947;48.834;9.132;2023-02-26T12:50:48;98195.06;;;2.57;64.61
15694;BME280;7947;48.834;9.132;2023-02-26T12:54:13;98201.19;;;2.57;65.34
15694;BME280;7947;48.834;9.132;2023-02-26T12:57:37;98202.72;;;2.65;64.95
15694;BME280;7947;48.834;9.132;2023-02-26T13:00:54;98199.59;;;2.86;64.62
15694;BME280;7947;48.834;9.132;2023-02-26T13:04:27;98203.06;;;2.98;63.26
15694;BME280;7947;48.834;9.132;2023-02-26T13:07:42;98207.88;;;3.08;63.38
15694;BME280;7947;48.834;9.132;2023-02-26T13:11:01;98206.81;;;3.38;62.07
15694;BME280;7947;48.834;9.132;2023-02-26T13:14:20;98203.47;;;3.54;61.46
15694;BME280;7947;48.834;9.132;2023-02-26T13:17:29;98203.94;;;3.51;61.28
15694;BME280;7947;48.834;9.132;2023-02-26T13:20:39;98203.59;;;3.48;59.13
15694;BME280;7947;48.834;9.132;2023-02-26T13:23:48;98208.44;;;3.51;59.59
15694;BME280;7947;48.834;9.132;2023-02-26T13:26:54;98210.38;;;3.44;60.81
15694;BME280;7947;48.834;9.132;2023-02-26T13:30:05;98205.09;;;3.55;58.21
15694;BME280;7947;48.834;9.132;2023-02-26T13:33:16;98217.63;;;3.48;58.46
15694;BME280;7947;48.834;9.132;2023-02-26T13:36:23;98208.31;;;3.46;59.05
15694;BME280;7947;48.834;9.132;2023-02-26T13:39:40;98210.84;;;3.52;58.42
15694;BME280;7947;48.834;9.132;2023-02-26T13:42:52;98213.75;;;3.62;58.83
15694;BME280;7947;48.834;9.132;2023-02-26T13:46:01;98208.59;;;3.67;59.32
15694;BME280;7947;48.834;9.132;2023-02-26T13:49:14;98204.56;;;3.77;60.79
15694;BME280;7947;48.834;9.132;2023-02-26T13:52:24;98216.91;;;3.83;61.00
15694;BME280;7947;48.834;9.132;2023-02-26T13:55:41;98214.50;;;3.93;59.91
15694;BME280;7947;48.834;9.132;2023-02-26T13:58:50;98221.88;;;3.91;58.91
15694;BME280;7947;48.834;9.132;2023-02-26T14:01:55;98232.69;;;3.89;60.02
15694;BME280;7947;48.834;9.132;2023-02-26T14:04:59;98222.47;;;3.93;59.97
15694;BME280;7947;48.834;9.132;2023-02-26T14:08:41;98219.91;;;3.86;58.80
15694;BME280;7947;48.834;9.132;2023-02-26T14:11:46;98223.38;;;3.87;57.04
15694;BME280;7947;48.834;9.132;2023-02-26T14:15:30;98230.75;;;3.96;55.85
15694;BME280;7947;48.834;9.132;2023-02-26T14:18:48;98226.94;;;4.04;55.91
15694;BME280;7947;48.834;9.132;2023-02-26T14:21:53;98221.97;;;3.96;54.91
15694;BME280;7947;48.834;9.132;2023-02-26T14:28:31;98220.13;;;4.31;54.32
15694;BME280;7947;48.834;9.132;2023-02-26T14:32:12;98218.16;;;4.26;52.85
15694;BME280;7947;48.834;9.132;2023-02-26T14:35:18;98216.66;;;4.19;51.51
15694;BME280;7947;48.834;9.132;2023-02-26T14:38:25;98228.22;;;4.01;50.97
15694;BME280;7947;48.834;9.132;2023-02-26T14:41:31;98229.13;;;3.84;50.31
15694;BME280;7947;48.834;9.132;2023-02-26T14:44:39;98226.69;;;3.82;51.55
15694;BME280;7947;48.834;9.132;2023-02-26T14:47:45;98227.84;;;3.86;51.62
15694;BME280;7947;48.834;9.132;2023-02-26T14:50:52;98235.56;;;3.88;53.18
15694;BME280;7947;48.834;9.132;2023-02-26T14:54:14;98241.94;;;3.98;51.71
15694;BME280;7947;48.834;9.132;2023-02-26T14:57:27;98244.13;;;3.90;51.86
15694;BME280;7947;48.834;9.132;2023-02-26T15:00:42;98243.31;;;3.89;53.39
15694;BME280;7947;48.834;9.132;2023-02-26T15:04:08;98240.44;;;3.91;51.46
15694;BME280;7947;48.834;9.132;2023-02-26T15:07:36;98244.34;;;3.88;52.13
15694;BME280;7947;48.834;9.132;2023-02-26T15:10:51;98242.84;;;3.81;51.03
15694;BME280;7947;48.834;9.132;2023-02-26T15:14:24;98244.81;;;3.85;51.18
15694;BME280;7947;48.834;9.132;2023-02-26T15:17:43;98252.50;;;3.63;51.69
15694;BME280;7947;48.834;9.132;2023-02-26T15:20:57;98261.97;;;3.71;51.88
15694;BME280;7947;48.834;9.132;2023-02-26T15:24:02;98266.22;;;3.72;53.25
15694;BME280;7947;48.834;9.132;2023-02-26T15:27:07;98273.84;;;3.80;52.47
15694;BME280;7947;48.834;9.132;2023-02-26T15:30:15;98271.78;;;3.82;53.14
15694;BME280;7947;48.834;9.132;2023-02-26T15:33:20;98267.97;;;3.78;52.20
15694;BME280;7947;48.834;9.132;2023-02-26T15:36:24;98269.47;;;3.74;51.65
15694;BME280;7947;48.834;9.132;2023-02-26T15:39:28;98263.72;;;3.77;52.90
15694;BME280;7947;48.834;9.132;2023-02-26T15:42:34;98274.19;;;3.84;50.37
15694;BME280;7947;48.834;9.132;2023-02-26T15:45:40;98269.69;;;3.73;51.92
15694;BME280;7947;48.834;9.132;2023-02-26T15:48:44;98272.47;;;3.78;52.35
15694;BME280;7947;48.834;9.132;2023-02-26T15:51:49;98271.13;;;3.87;52.67
15694;BME280;7947;48.834;9.132;2023-02-26T15:54:55;98267.16;;;3.89;52.87
15694;BME280;7947;48.834;9.132;2023-02-26T15:57:58;98277.81;;;4.01;53.02
15694;BME280;7947;48.834;9.132;2023-02-26T16:01:03;98285.41;;;3.97;52.89
15694;BME280;7947;48.834;9.132;2023-02-26T16:04:12;98290.88;;;4.02;52.68
15694;BME280;7947;48.834;9.132;2023-02-26T16:07:18;98288.94;;;3.80;47.96
15694;BME280;7947;48.834;9.132;2023-02-26T16:10:27;98299.16;;;3.53;48.99
15694;BME280;7947;48.834;9.132;2023-02-26T16:13:36;98301.63;;;3.36;50.33
15694;BME280;7947;48.834;9.132;2023-02-26T16:16:47;98309.44;;;3.31;50.41
15694;BME280;7947;48.834;9.132;2023-02-26T16:19:52;98317.19;;;3.33;51.27
15694;BME280;7947;48.834;9.132;2023-02-26T16:23:01;98325.78;;;3.28;51.93
15694;BME280;7947;48.834;9.132;2023-02-26T16:26:06;98331.09;;;3.28;49.65
15694;BME280;7947;48.834;9.132;2023-02-26T16:29:13;98338.44;;;3.26;49.58
15694;BME280;7947;48.834;9.132;2023-02-26T16:32:17;98341.41;;;3.18;49.15
15694;BME280;7947;48.834;9.132;2023-02-26T16:35:22;98339.50;;;3.07;49.77
15694;BME280;7947;48.834;9.132;2023-02-26T16:38:30;98350.38;;;2.99;50.08
15694;BME280;7947;48.834;9.132;2023-02-26T16:41:37;98349.34;;;3.00;50.81
15694;BME280;7947;48.834;9.132;2023-02-26T16:44:47;98361.78;;;3.00;50.95
15694;BME280;7947;48.834;9.132;2023-02-26T16:47:54;98367.88;;;3.00;50.79
15694;BME280;7947;48.834;9.132;2023-02-26T16:51:00;98381.94;;;3.01;51.54
15694;BME280;7947;48.834;9.132;2023-02-26T16:54:08;98379.06;;;3.02;50.13
15694;BME280;7947;48.834;9.132;2023-02-26T16:57:18;98385.78;;;3.05;49.69
15694;BME280;7947;48.834;9.132;2023-02-26T17:00:23;98386.00;;;3.03;49.55
15694;BME280;7947;48.834;9.132;2023-02-26T17:03:31;98388.06;;;3.01;50.49